Kemp, Texas
Current Conditions -  °F | °C
As of 12:53 PM on Friday 21 Nov 2014 (Local Time) from KTRL Reporting Station
Overcast Overcast  
Wind Chill: 66°   Ceiling: 800
Heat Index: 66°   Visibility: 10mi
Dew Point: 61°   Wind: 10mph
Humidity: 84%   Direction: 140°SE
Pressure: 30.09"   Gusts: NA
Location:  32.44°N, 96.23°W
Report Text: KTRL 211853Z AUTO 14009KT 10SM OVC008 19/16 A3009 RMK AO2 SLP187 T01890161
Loading
Personal Weather Stations






























Interactive Weather Map New forecast layout! Learn more

10-Day Weather Forecast

Advertisements
Track Severe Weather on mobile